JAL4126 RJFK-RJTT
Flight info
| Callsign | JAL4126 |
|---|---|
| Flight time | 1h 19m |
| Altitude | 37000 |
| Route | MIDAI3 MIDAI M750 BILLY Y21 AKSEL AKSEL1A |
| Aircraft | B738/M-SDE2E3FGHIRWXY/LB1 |
Departure
| Time | 2026-04-30 10:21 |
|---|---|
| Airport | Kagoshima Airport (RJFK) |
Arrival
| Time | 2026-04-30 11:40 |
|---|---|
| Airport | Tokyo Haneda International Airport (RJTT) |
| Time | Latitude | Longitude | Altitude | Speed | Heading |
|---|---|---|---|---|---|
| 2026-04-30 10:04 | 31.80098 | 130.71715 | 901 ft | 0 kts | 239° |
| 2026-04-30 10:13 | 31.80101 | 130.71720 | 901 ft | 3 kts | 239° |
| 2026-04-30 10:13 | 31.80114 | 130.71747 | 875 ft | 4 kts | 236° |
| 2026-04-30 10:13 | 31.80129 | 130.71773 | 904 ft | 4 kts | 246° |
| 2026-04-30 10:13 | 31.80136 | 130.71798 | 913 ft | 4 kts | 264° |
| 2026-04-30 10:14 | 31.80134 | 130.71829 | 907 ft | 5 kts | 284° |
| 2026-04-30 10:14 | 31.80131 | 130.71841 | 907 ft | 2 kts | 284° |
| 2026-04-30 10:16 | 31.80144 | 130.71820 | 905 ft | 6 kts | 324° |
| 2026-04-30 10:16 | 31.80205 | 130.71793 | 906 ft | 13 kts | 338° |
| 2026-04-30 10:17 | 31.80441 | 130.71639 | 904 ft | 23 kts | 330° |
| 2026-04-30 10:17 | 31.80711 | 130.71459 | 908 ft | 22 kts | 330° |
| 2026-04-30 10:17 | 31.80840 | 130.71372 | 913 ft | 21 kts | 329° |
| 2026-04-30 10:18 | 31.80965 | 130.71286 | 917 ft | 20 kts | 329° |
| 2026-04-30 10:18 | 31.81086 | 130.71204 | 917 ft | 20 kts | 330° |
| 2026-04-30 10:18 | 31.81204 | 130.71124 | 916 ft | 19 kts | 330° |
| 2026-04-30 10:19 | 31.81398 | 130.70994 | 916 ft | 8 kts | 338° |
| 2026-04-30 10:19 | 31.81455 | 130.71010 | 914 ft | 10 kts | 45° |
| 2026-04-30 10:19 | 31.81486 | 130.71079 | 912 ft | 10 kts | 77° |
| 2026-04-30 10:19 | 31.81477 | 130.71155 | 913 ft | 9 kts | 116° |
| 2026-04-30 10:20 | 31.81429 | 130.71201 | 914 ft | 9 kts | 149° |
| 2026-04-30 10:20 | 31.80786 | 130.71637 | 911 ft | 125 kts | 150° |
| 2026-04-30 10:20 | 31.79887 | 130.72228 | 1178 ft | 162 kts | 148° |
| 2026-04-30 10:21 | 31.78818 | 130.72921 | 1807 ft | 183 kts | 154° |
| 2026-04-30 10:21 | 31.77584 | 130.73414 | 2709 ft | 188 kts | 162° |
| 2026-04-30 10:21 | 31.76289 | 130.73883 | 3335 ft | 209 kts | 164° |
| 2026-04-30 10:21 | 31.74805 | 130.74414 | 3683 ft | 232 kts | 164° |
| 2026-04-30 10:22 | 31.73166 | 130.75002 | 4048 ft | 257 kts | 165° |
| 2026-04-30 10:22 | 31.71431 | 130.75629 | 4938 ft | 263 kts | 166° |
| 2026-04-30 10:22 | 31.69765 | 130.76558 | 5868 ft | 274 kts | 141° |
| 2026-04-30 10:22 | 31.68712 | 130.78466 | 6749 ft | 287 kts | 111° |
| 2026-04-30 10:23 | 31.68268 | 130.80762 | 7586 ft | 296 kts | 103° |
| 2026-04-30 10:23 | 31.67939 | 130.83182 | 8416 ft | 304 kts | 101° |
| 2026-04-30 10:23 | 31.67630 | 130.85676 | 9247 ft | 312 kts | 101° |
| 2026-04-30 10:23 | 31.67313 | 130.88224 | 10054 ft | 319 kts | 102° |
| 2026-04-30 10:24 | 31.66983 | 130.90857 | 10591 ft | 335 kts | 102° |
| 2026-04-30 10:24 | 31.66615 | 130.93636 | 11059 ft | 351 kts | 102° |
| 2026-04-30 10:24 | 31.66228 | 130.96498 | 11803 ft | 358 kts | 103° |
| 2026-04-30 10:24 | 31.65834 | 130.99396 | 12609 ft | 362 kts | 103° |
| 2026-04-30 10:25 | 31.65437 | 131.02298 | 13402 ft | 366 kts | 103° |
| 2026-04-30 10:25 | 31.65027 | 131.05272 | 14101 ft | 372 kts | 104° |
| 2026-04-30 10:25 | 31.64605 | 131.08312 | 14788 ft | 379 kts | 104° |
| 2026-04-30 10:25 | 31.64190 | 131.11382 | 15479 ft | 385 kts | 102° |
| 2026-04-30 10:26 | 31.64175 | 131.14576 | 16105 ft | 399 kts | 86° |
| 2026-04-30 10:26 | 31.64873 | 131.17778 | 16719 ft | 411 kts | 70° |
| 2026-04-30 10:26 | 31.66038 | 131.20826 | 17338 ft | 417 kts | 66° |
| 2026-04-30 10:26 | 31.67294 | 131.23921 | 18076 ft | 423 kts | 65° |
| 2026-04-30 10:27 | 31.68576 | 131.27057 | 18648 ft | 429 kts | 66° |
| 2026-04-30 10:27 | 31.69864 | 131.30237 | 19222 ft | 432 kts | 66° |
| 2026-04-30 10:27 | 31.71153 | 131.33439 | 19866 ft | 434 kts | 66° |
| 2026-04-30 10:27 | 31.72443 | 131.36667 | 20458 ft | 438 kts | 67° |
| 2026-04-30 10:28 | 31.73736 | 131.39924 | 21027 ft | 442 kts | 67° |
| 2026-04-30 10:28 | 31.75035 | 131.43209 | 21570 ft | 445 kts | 67° |
| 2026-04-30 10:28 | 31.76338 | 131.46533 | 22108 ft | 448 kts | 68° |
| 2026-04-30 10:28 | 31.77661 | 131.49823 | 22646 ft | 452 kts | 66° |
| 2026-04-30 10:29 | 31.79057 | 131.53153 | 23185 ft | 456 kts | 66° |
| 2026-04-30 10:29 | 31.80483 | 131.56507 | 23641 ft | 459 kts | 65° |
| 2026-04-30 10:29 | 31.81916 | 131.59874 | 24110 ft | 462 kts | 65° |
| 2026-04-30 10:29 | 31.83355 | 131.63264 | 24554 ft | 465 kts | 65° |
| 2026-04-30 10:30 | 31.84801 | 131.66690 | 24977 ft | 469 kts | 65° |
| 2026-04-30 10:30 | 31.86253 | 131.70144 | 25400 ft | 473 kts | 65° |
| 2026-04-30 10:30 | 31.87714 | 131.73632 | 25856 ft | 476 kts | 65° |
| 2026-04-30 10:30 | 31.89183 | 131.77150 | 26215 ft | 481 kts | 65° |
| 2026-04-30 10:31 | 31.90666 | 131.80704 | 26613 ft | 484 kts | 65° |
| 2026-04-30 10:31 | 31.92134 | 131.84227 | 27078 ft | 486 kts | 65° |
| 2026-04-30 10:31 | 31.93627 | 131.87814 | 27480 ft | 489 kts | 65° |
| 2026-04-30 10:31 | 31.95134 | 131.91437 | 27879 ft | 493 kts | 65° |
| 2026-04-30 10:32 | 31.96648 | 131.95081 | 28246 ft | 496 kts | 64° |
| 2026-04-30 10:32 | 31.98171 | 131.98749 | 28625 ft | 500 kts | 64° |
| 2026-04-30 10:32 | 31.99705 | 132.02447 | 29011 ft | 502 kts | 64° |
| 2026-04-30 10:32 | 32.01246 | 132.06165 | 29397 ft | 505 kts | 64° |
| 2026-04-30 10:33 | 32.02771 | 132.09851 | 29761 ft | 508 kts | 64° |
| 2026-04-30 10:33 | 32.04325 | 132.13609 | 30078 ft | 512 kts | 64° |
| 2026-04-30 10:33 | 32.05892 | 132.17404 | 30364 ft | 515 kts | 64° |
| 2026-04-30 10:33 | 32.07464 | 132.21212 | 30631 ft | 517 kts | 64° |
| 2026-04-30 10:34 | 32.09038 | 132.25033 | 30991 ft | 519 kts | 65° |
| 2026-04-30 10:34 | 32.10625 | 132.28887 | 31228 ft | 523 kts | 65° |
| 2026-04-30 10:34 | 32.12216 | 132.32756 | 31467 ft | 527 kts | 65° |
| 2026-04-30 10:34 | 32.13819 | 132.36660 | 31734 ft | 529 kts | 65° |
| 2026-04-30 10:35 | 32.15425 | 132.40574 | 32065 ft | 530 kts | 65° |
| 2026-04-30 10:35 | 32.17026 | 132.44479 | 32537 ft | 526 kts | 65° |
| 2026-04-30 10:35 | 32.18617 | 132.48363 | 33025 ft | 524 kts | 65° |
| 2026-04-30 10:35 | 32.20206 | 132.52248 | 33235 ft | 528 kts | 65° |
| 2026-04-30 10:36 | 32.21790 | 132.56126 | 33428 ft | 532 kts | 65° |
| 2026-04-30 10:36 | 32.23398 | 132.60068 | 33769 ft | 532 kts | 65° |
| 2026-04-30 10:36 | 32.25000 | 132.63996 | 34171 ft | 528 kts | 65° |
| 2026-04-30 10:36 | 32.26589 | 132.67898 | 34660 ft | 523 kts | 65° |
| 2026-04-30 10:37 | 32.28162 | 132.71764 | 34995 ft | 522 kts | 65° |
| 2026-04-30 10:37 | 32.29735 | 132.75635 | 35297 ft | 523 kts | 65° |
| 2026-04-30 10:37 | 32.31310 | 132.79518 | 35567 ft | 523 kts | 66° |
| 2026-04-30 10:37 | 32.32883 | 132.83398 | 35823 ft | 524 kts | 66° |
| 2026-04-30 10:38 | 32.34389 | 132.87310 | 36085 ft | 523 kts | 69° |
| 2026-04-30 10:38 | 32.35772 | 132.91293 | 36412 ft | 521 kts | 71° |
| 2026-04-30 10:38 | 32.37085 | 132.95289 | 36723 ft | 520 kts | 71° |
| 2026-04-30 10:38 | 32.38373 | 132.99285 | 36928 ft | 522 kts | 72° |
| 2026-04-30 10:39 | 32.40999 | 133.07375 | 36873 ft | 527 kts | 71° |
| 2026-04-30 10:39 | 32.43664 | 133.15414 | 36854 ft | 520 kts | 71° |
| 2026-04-30 10:40 | 32.46319 | 133.23359 | 36845 ft | 518 kts | 70° |
| 2026-04-30 10:40 | 32.48949 | 133.31248 | 36871 ft | 517 kts | 71° |
| 2026-04-30 10:41 | 32.51590 | 133.39198 | 36876 ft | 517 kts | 71° |
| 2026-04-30 10:41 | 32.54216 | 133.47132 | 36872 ft | 517 kts | 71° |
| 2026-04-30 10:42 | 32.56836 | 133.55065 | 36890 ft | 517 kts | 71° |
| 2026-04-30 10:42 | 32.59460 | 133.63031 | 36896 ft | 518 kts | 71° |
| 2026-04-30 10:43 | 32.62059 | 133.70940 | 36886 ft | 517 kts | 71° |
| 2026-04-30 10:43 | 32.64669 | 133.78901 | 36910 ft | 517 kts | 71° |
| 2026-04-30 10:44 | 32.67277 | 133.86879 | 36893 ft | 517 kts | 71° |
| 2026-04-30 10:44 | 32.69874 | 133.94839 | 36901 ft | 517 kts | 71° |
| 2026-04-30 10:45 | 32.72447 | 134.02747 | 36942 ft | 517 kts | 71° |
| 2026-04-30 10:45 | 32.75036 | 134.10727 | 36914 ft | 517 kts | 71° |
| 2026-04-30 10:46 | 32.77619 | 134.18707 | 36913 ft | 517 kts | 71° |
| 2026-04-30 10:46 | 32.80195 | 134.26682 | 36942 ft | 516 kts | 71° |
| 2026-04-30 10:47 | 32.82765 | 134.34664 | 36930 ft | 517 kts | 71° |
| 2026-04-30 10:47 | 32.85330 | 134.42650 | 36909 ft | 517 kts | 71° |
| 2026-04-30 10:48 | 32.87870 | 134.50576 | 36927 ft | 516 kts | 71° |
| 2026-04-30 10:48 | 32.90422 | 134.58562 | 36947 ft | 516 kts | 71° |
| 2026-04-30 10:49 | 32.92969 | 134.66552 | 36936 ft | 515 kts | 71° |
| 2026-04-30 10:49 | 32.95505 | 134.74526 | 36948 ft | 515 kts | 71° |
| 2026-04-30 10:50 | 32.98039 | 134.82517 | 36958 ft | 516 kts | 71° |
| 2026-04-30 10:50 | 33.00570 | 134.90517 | 36961 ft | 515 kts | 71° |
| 2026-04-30 10:51 | 33.03092 | 134.98512 | 36959 ft | 515 kts | 71° |
| 2026-04-30 10:51 | 33.05593 | 135.06459 | 36963 ft | 515 kts | 72° |
| 2026-04-30 10:52 | 33.08108 | 135.14475 | 36968 ft | 516 kts | 72° |
| 2026-04-30 10:52 | 33.10518 | 135.22541 | 36970 ft | 515 kts | 77° |
| 2026-04-30 10:53 | 33.12377 | 135.30775 | 36998 ft | 514 kts | 79° |
| 2026-04-30 10:53 | 33.14127 | 135.39014 | 36995 ft | 515 kts | 79° |
| 2026-04-30 10:54 | 33.15933 | 135.47312 | 36996 ft | 517 kts | 79° |
| 2026-04-30 10:54 | 33.17773 | 135.55626 | 37000 ft | 518 kts | 78° |
| 2026-04-30 10:55 | 33.19614 | 135.63956 | 37008 ft | 519 kts | 78° |
| 2026-04-30 10:55 | 33.21438 | 135.72252 | 37010 ft | 519 kts | 78° |
| 2026-04-30 10:56 | 33.23266 | 135.80605 | 37018 ft | 520 kts | 78° |
| 2026-04-30 10:56 | 33.25089 | 135.88962 | 36986 ft | 520 kts | 78° |
| 2026-04-30 10:57 | 33.26895 | 135.97321 | 37022 ft | 518 kts | 79° |
| 2026-04-30 10:57 | 33.28381 | 136.04246 | 37024 ft | 517 kts | 79° |
| 2026-04-30 10:58 | 33.30452 | 136.13928 | 37025 ft | 516 kts | 79° |
| 2026-04-30 10:58 | 33.32222 | 136.22231 | 37040 ft | 515 kts | 79° |
| 2026-04-30 10:59 | 33.33699 | 136.29174 | 37038 ft | 514 kts | 79° |
| 2026-04-30 10:59 | 33.35739 | 136.38806 | 37045 ft | 513 kts | 79° |
| 2026-04-30 11:00 | 33.37189 | 136.45681 | 37040 ft | 512 kts | 79° |
| 2026-04-30 11:00 | 33.38930 | 136.53953 | 37047 ft | 512 kts | 79° |
| 2026-04-30 11:01 | 33.40667 | 136.62235 | 37045 ft | 513 kts | 79° |
| 2026-04-30 11:01 | 33.42391 | 136.70481 | 37048 ft | 513 kts | 79° |
| 2026-04-30 11:02 | 33.44126 | 136.78769 | 37044 ft | 514 kts | 77° |
| 2026-04-30 11:02 | 33.46767 | 136.86775 | 37068 ft | 516 kts | 66° |
| 2026-04-30 11:03 | 33.49799 | 136.94574 | 37054 ft | 517 kts | 66° |
| 2026-04-30 11:04 | 33.54269 | 137.06282 | 37058 ft | 517 kts | 67° |
| 2026-04-30 11:04 | 33.57194 | 137.14162 | 37059 ft | 517 kts | 67° |
| 2026-04-30 11:05 | 33.60104 | 137.22054 | 37064 ft | 517 kts | 67° |
| 2026-04-30 11:05 | 33.63009 | 137.29946 | 37062 ft | 516 kts | 67° |
| 2026-04-30 11:06 | 33.65907 | 137.37823 | 37066 ft | 516 kts | 67° |
| 2026-04-30 11:06 | 33.68802 | 137.45710 | 37074 ft | 516 kts | 67° |
| 2026-04-30 11:07 | 33.71691 | 137.53598 | 37073 ft | 516 kts | 67° |
| 2026-04-30 11:07 | 33.74577 | 137.61497 | 37090 ft | 516 kts | 68° |
| 2026-04-30 11:08 | 33.77448 | 137.69377 | 36694 ft | 521 kts | 68° |
| 2026-04-30 11:08 | 33.78898 | 137.73364 | 36230 ft | 519 kts | 68° |
| 2026-04-30 11:08 | 33.80341 | 137.77334 | 35786 ft | 517 kts | 68° |
| 2026-04-30 11:08 | 33.81771 | 137.81276 | 35418 ft | 513 kts | 68° |
| 2026-04-30 11:09 | 33.83195 | 137.85203 | 35035 ft | 509 kts | 68° |
| 2026-04-30 11:09 | 33.84607 | 137.89102 | 34643 ft | 506 kts | 68° |
| 2026-04-30 11:09 | 33.86008 | 137.92978 | 34253 ft | 504 kts | 68° |
| 2026-04-30 11:09 | 33.87403 | 137.96840 | 33810 ft | 501 kts | 68° |
| 2026-04-30 11:10 | 33.88792 | 138.00692 | 33387 ft | 498 kts | 68° |
| 2026-04-30 11:10 | 33.90149 | 138.04458 | 33003 ft | 495 kts | 68° |
| 2026-04-30 11:10 | 33.91511 | 138.08245 | 32612 ft | 492 kts | 68° |
| 2026-04-30 11:10 | 33.92868 | 138.12021 | 32228 ft | 489 kts | 68° |
| 2026-04-30 11:11 | 33.94214 | 138.15768 | 31847 ft | 486 kts | 68° |
| 2026-04-30 11:11 | 33.95555 | 138.19510 | 31469 ft | 483 kts | 67° |
| 2026-04-30 11:11 | 33.96881 | 138.23210 | 31090 ft | 480 kts | 67° |
| 2026-04-30 11:11 | 33.98178 | 138.26838 | 30729 ft | 477 kts | 67° |
| 2026-04-30 11:12 | 33.99491 | 138.30512 | 30359 ft | 475 kts | 67° |
| 2026-04-30 11:12 | 34.00791 | 138.34154 | 29943 ft | 473 kts | 67° |
| 2026-04-30 11:12 | 34.02086 | 138.37784 | 29521 ft | 469 kts | 67° |
| 2026-04-30 11:12 | 34.03367 | 138.41381 | 29116 ft | 465 kts | 67° |
| 2026-04-30 11:13 | 34.04637 | 138.44953 | 28721 ft | 462 kts | 67° |
| 2026-04-30 11:13 | 34.05896 | 138.48495 | 28337 ft | 458 kts | 67° |
| 2026-04-30 11:13 | 34.07144 | 138.52011 | 27952 ft | 454 kts | 67° |
| 2026-04-30 11:13 | 34.08384 | 138.55508 | 27572 ft | 450 kts | 67° |
| 2026-04-30 11:14 | 34.09611 | 138.58971 | 27196 ft | 446 kts | 67° |
| 2026-04-30 11:14 | 34.10826 | 138.62404 | 26825 ft | 443 kts | 67° |
| 2026-04-30 11:14 | 34.12018 | 138.65778 | 26464 ft | 440 kts | 67° |
| 2026-04-30 11:14 | 34.13214 | 138.69167 | 26098 ft | 436 kts | 67° |
| 2026-04-30 11:15 | 34.14397 | 138.72522 | 25749 ft | 433 kts | 67° |
| 2026-04-30 11:15 | 34.15572 | 138.75857 | 25373 ft | 430 kts | 67° |
| 2026-04-30 11:15 | 34.16738 | 138.79170 | 25006 ft | 427 kts | 67° |
| 2026-04-30 11:15 | 34.17895 | 138.82461 | 24644 ft | 424 kts | 66° |
| 2026-04-30 11:16 | 34.19165 | 138.85663 | 24349 ft | 419 kts | 60° |
| 2026-04-30 11:16 | 34.20589 | 138.88637 | 24203 ft | 410 kts | 57° |
| 2026-04-30 11:16 | 34.22084 | 138.91610 | 23834 ft | 409 kts | 57° |
| 2026-04-30 11:16 | 34.23553 | 138.94499 | 23398 ft | 408 kts | 57° |
| 2026-04-30 11:17 | 34.25030 | 138.97423 | 23008 ft | 405 kts | 57° |
| 2026-04-30 11:17 | 34.26482 | 139.00327 | 22658 ft | 401 kts | 57° |
| 2026-04-30 11:17 | 34.27909 | 139.03209 | 22303 ft | 398 kts | 57° |
| 2026-04-30 11:17 | 34.29322 | 139.06081 | 21938 ft | 395 kts | 57° |
| 2026-04-30 11:18 | 34.30716 | 139.08929 | 21584 ft | 393 kts | 57° |
| 2026-04-30 11:18 | 34.33474 | 139.14578 | 20862 ft | 388 kts | 57° |
| 2026-04-30 11:18 | 34.34840 | 139.17383 | 20533 ft | 385 kts | 57° |
| 2026-04-30 11:19 | 34.36197 | 139.20170 | 20204 ft | 382 kts | 57° |
| 2026-04-30 11:19 | 34.37541 | 139.22934 | 19857 ft | 379 kts | 57° |
| 2026-04-30 11:19 | 34.38875 | 139.25674 | 19283 ft | 385 kts | 57° |
| 2026-04-30 11:19 | 34.40231 | 139.28475 | 18879 ft | 386 kts | 57° |
| 2026-04-30 11:20 | 34.41672 | 139.31215 | 18531 ft | 383 kts | 56° |
| 2026-04-30 11:20 | 34.43026 | 139.33989 | 18209 ft | 379 kts | 58° |
| 2026-04-30 11:20 | 34.44327 | 139.36744 | 17863 ft | 375 kts | 58° |
| 2026-04-30 11:20 | 34.45612 | 139.39466 | 17474 ft | 369 kts | 58° |
| 2026-04-30 11:21 | 34.46876 | 139.42126 | 17233 ft | 355 kts | 58° |
| 2026-04-30 11:21 | 34.48085 | 139.44657 | 17017 ft | 341 kts | 58° |
| 2026-04-30 11:21 | 34.49267 | 139.47118 | 16563 ft | 336 kts | 58° |
| 2026-04-30 11:21 | 34.50442 | 139.49556 | 16072 ft | 333 kts | 58° |
| 2026-04-30 11:22 | 34.51605 | 139.51967 | 15607 ft | 330 kts | 58° |
| 2026-04-30 11:22 | 34.52755 | 139.54352 | 15174 ft | 325 kts | 58° |
| 2026-04-30 11:22 | 34.53892 | 139.56711 | 14734 ft | 321 kts | 58° |
| 2026-04-30 11:22 | 34.55013 | 139.59038 | 14296 ft | 318 kts | 58° |
| 2026-04-30 11:23 | 34.56122 | 139.61341 | 13861 ft | 314 kts | 58° |
| 2026-04-30 11:23 | 34.57221 | 139.63625 | 13325 ft | 313 kts | 58° |
| 2026-04-30 11:23 | 34.59390 | 139.68137 | 12324 ft | 308 kts | 59° |
| 2026-04-30 11:24 | 34.60656 | 139.70194 | 11883 ft | 302 kts | 37° |
| 2026-04-30 11:24 | 34.62487 | 139.71394 | 11342 ft | 299 kts | 20° |
| 2026-04-30 11:24 | 34.64432 | 139.72331 | 10723 ft | 303 kts | 20° |
| 2026-04-30 11:25 | 34.68377 | 139.74198 | 9741 ft | 300 kts | 19° |
| 2026-04-30 11:25 | 34.70339 | 139.75050 | 9369 ft | 299 kts | 18° |
| 2026-04-30 11:25 | 34.74227 | 139.76649 | 8825 ft | 294 kts | 18° |
| 2026-04-30 11:26 | 34.78091 | 139.78238 | 8241 ft | 291 kts | 19° |
| 2026-04-30 11:26 | 34.80004 | 139.79033 | 7965 ft | 290 kts | 19° |
| 2026-04-30 11:26 | 34.81908 | 139.79827 | 7676 ft | 288 kts | 19° |
| 2026-04-30 11:27 | 34.83802 | 139.80619 | 7412 ft | 287 kts | 20° |
| 2026-04-30 11:27 | 34.85681 | 139.81407 | 7152 ft | 285 kts | 20° |
| 2026-04-30 11:27 | 34.87556 | 139.82194 | 6862 ft | 284 kts | 20° |
| 2026-04-30 11:27 | 34.89398 | 139.82968 | 6609 ft | 283 kts | 20° |
| 2026-04-30 11:28 | 34.93092 | 139.84523 | 6073 ft | 279 kts | 21° |
| 2026-04-30 11:28 | 34.94918 | 139.85296 | 5832 ft | 277 kts | 21° |
| 2026-04-30 11:28 | 34.96738 | 139.86065 | 5580 ft | 275 kts | 21° |
| 2026-04-30 11:29 | 34.98544 | 139.86825 | 5332 ft | 273 kts | 22° |
| 2026-04-30 11:29 | 35.00334 | 139.87578 | 5096 ft | 271 kts | 22° |
| 2026-04-30 11:29 | 35.03840 | 139.89057 | 4995 ft | 256 kts | 22° |
| 2026-04-30 11:30 | 35.07068 | 139.90418 | 4981 ft | 234 kts | 22° |
| 2026-04-30 11:30 | 35.08559 | 139.91047 | 4983 ft | 228 kts | 21° |
| 2026-04-30 11:30 | 35.10070 | 139.91686 | 5003 ft | 226 kts | 22° |
| 2026-04-30 11:31 | 35.11555 | 139.92318 | 5001 ft | 226 kts | 23° |
| 2026-04-30 11:31 | 35.13018 | 139.92945 | 4999 ft | 225 kts | 22° |
| 2026-04-30 11:31 | 35.14495 | 139.93563 | 4995 ft | 223 kts | 22° |
| 2026-04-30 11:31 | 35.15957 | 139.94184 | 4997 ft | 222 kts | 21° |
| 2026-04-30 11:32 | 35.17424 | 139.94804 | 5000 ft | 223 kts | 22° |
| 2026-04-30 11:32 | 35.18895 | 139.95433 | 5006 ft | 225 kts | 22° |
| 2026-04-30 11:32 | 35.20390 | 139.96070 | 5016 ft | 229 kts | 22° |
| 2026-04-30 11:33 | 35.23391 | 139.97345 | 4997 ft | 228 kts | 22° |
| 2026-04-30 11:33 | 35.24892 | 139.97966 | 5002 ft | 228 kts | 17° |
| 2026-04-30 11:33 | 35.26460 | 139.97906 | 4994 ft | 230 kts | 337° |
| 2026-04-30 11:33 | 35.27844 | 139.96940 | 5023 ft | 230 kts | 328° |
| 2026-04-30 11:34 | 35.29226 | 139.95906 | 5023 ft | 234 kts | 329° |
| 2026-04-30 11:34 | 35.30640 | 139.94900 | 5016 ft | 236 kts | 330° |
| 2026-04-30 11:34 | 35.32070 | 139.93897 | 4895 ft | 240 kts | 330° |
| 2026-04-30 11:34 | 35.33518 | 139.92874 | 4575 ft | 238 kts | 330° |
| 2026-04-30 11:35 | 35.34941 | 139.91866 | 4261 ft | 234 kts | 331° |
| 2026-04-30 11:35 | 35.36337 | 139.90873 | 3936 ft | 230 kts | 331° |
| 2026-04-30 11:35 | 35.37706 | 139.89898 | 3625 ft | 224 kts | 331° |
| 2026-04-30 11:35 | 35.39026 | 139.88959 | 3332 ft | 215 kts | 332° |
| 2026-04-30 11:36 | 35.40296 | 139.88057 | 3050 ft | 207 kts | 332° |
| 2026-04-30 11:36 | 35.41484 | 139.87213 | 2800 ft | 194 kts | 332° |
| 2026-04-30 11:36 | 35.42619 | 139.86407 | 2547 ft | 183 kts | 332° |
| 2026-04-30 11:36 | 35.43690 | 139.85646 | 2297 ft | 174 kts | 332° |
| 2026-04-30 11:37 | 35.44724 | 139.84912 | 2068 ft | 169 kts | 332° |
| 2026-04-30 11:37 | 35.45737 | 139.84193 | 1839 ft | 167 kts | 332° |
| 2026-04-30 11:37 | 35.46742 | 139.83479 | 1621 ft | 166 kts | 333° |
| 2026-04-30 11:37 | 35.47737 | 139.82773 | 1386 ft | 164 kts | 332° |
| 2026-04-30 11:38 | 35.48679 | 139.82103 | 1170 ft | 150 kts | 332° |
| 2026-04-30 11:38 | 35.49567 | 139.81473 | 973 ft | 145 kts | 333° |
| 2026-04-30 11:38 | 35.50422 | 139.80865 | 781 ft | 140 kts | 332° |
| 2026-04-30 11:38 | 35.51259 | 139.80271 | 614 ft | 139 kts | 333° |
| 2026-04-30 11:39 | 35.52103 | 139.79674 | 464 ft | 142 kts | 333° |
| 2026-04-30 11:39 | 35.52966 | 139.79052 | 243 ft | 147 kts | 333° |
| 2026-04-30 11:39 | 35.53842 | 139.78435 | 44 ft | 144 kts | 334° |
| 2026-04-30 11:39 | 35.54614 | 139.77896 | 20 ft | 101 kts | 329° |
| 2026-04-30 11:40 | 35.55052 | 139.77637 | 19 ft | 40 kts | 353° |
| 2026-04-30 11:40 | 35.55194 | 139.77687 | 20 ft | 15 kts | 78° |
| 2026-04-30 11:40 | 35.55134 | 139.77777 | 21 ft | 14 kts | 149° |
| 2026-04-30 11:40 | 35.55050 | 139.77835 | 21 ft | 14 kts | 152° |
| 2026-04-30 11:41 | 35.54969 | 139.77891 | 22 ft | 13 kts | 149° |
| 2026-04-30 11:41 | 35.54893 | 139.77947 | 21 ft | 13 kts | 149° |
| 2026-04-30 11:41 | 35.54818 | 139.78002 | 20 ft | 12 kts | 149° |
| 2026-04-30 11:41 | 35.54744 | 139.78054 | 21 ft | 12 kts | 151° |
| 2026-04-30 11:42 | 35.54673 | 139.78102 | 21 ft | 12 kts | 150° |
| 2026-04-30 11:42 | 35.54602 | 139.78153 | 21 ft | 12 kts | 142° |
| 2026-04-30 11:42 | 35.54594 | 139.78242 | 22 ft | 11 kts | 80° |
| 2026-04-30 11:42 | 35.54553 | 139.78315 | 25 ft | 11 kts | 149° |
| 2026-04-30 11:43 | 35.54487 | 139.78361 | 23 ft | 10 kts | 150° |
| 2026-04-30 11:43 | 35.54461 | 139.78406 | 22 ft | 7 kts | 89° |
| 2026-04-30 11:43 | 35.54478 | 139.78455 | 24 ft | 5 kts | 59° |
| 2026-04-30 11:43 | 35.54486 | 139.78471 | 23 ft | 2 kts | 59° |
| 2026-04-30 11:44 | 35.54487 | 139.78474 | 23 ft | 0 kts | 59° |